sensor_id;sensor_type;location;lat;lon;timestamp;pressure;altitude;pressure_sealevel;temperature;humidity
76052;BME280;64751;48.708;9.710;2024-03-23T00:51:38;96895.13;;;6.24;85.91
76052;BME280;64751;48.708;9.710;2024-03-23T00:54:08;96897.47;;;6.26;85.87
76052;BME280;64751;48.708;9.710;2024-03-23T00:56:35;96891.97;;;6.27;86.95
76052;BME280;64751;48.708;9.710;2024-03-23T00:59:08;96891.44;;;6.30;87.10
76052;BME280;64751;48.708;9.710;2024-03-23T01:01:39;96889.88;;;6.29;87.62
76052;BME280;64751;48.708;9.710;2024-03-23T01:04:07;96885.94;;;6.27;87.20
76052;BME280;64751;48.708;9.710;2024-03-23T01:06:40;96881.72;;;6.31;87.06
76052;BME280;64751;48.708;9.710;2024-03-23T01:09:12;96878.31;;;6.35;86.87
76052;BME280;64751;48.708;9.710;2024-03-23T01:11:40;96879.09;;;6.31;86.40
76052;BME280;64751;48.708;9.710;2024-03-23T01:14:07;96875.69;;;6.30;86.13
76052;BME280;64751;48.708;9.710;2024-03-23T01:16:39;96872.81;;;6.27;86.68
76052;BME280;64751;48.708;9.710;2024-03-23T01:19:06;96863.94;;;6.23;86.80
76052;BME280;64751;48.708;9.710;2024-03-23T01:21:35;96859.44;;;6.23;86.67
76052;BME280;64751;48.708;9.710;2024-03-23T01:24:09;96853.72;;;6.16;86.84
76052;BME280;64751;48.708;9.710;2024-03-23T01:26:37;96851.63;;;6.18;86.82
76052;BME280;64751;48.708;9.710;2024-03-23T01:29:09;96852.91;;;6.16;86.94
76052;BME280;64751;48.708;9.710;2024-03-23T01:31:35;96853.97;;;6.10;86.98
76052;BME280;64751;48.708;9.710;2024-03-23T01:34:08;96860.28;;;6.14;88.19
76052;BME280;64751;48.708;9.710;2024-03-23T01:36:35;96850.53;;;6.14;87.61
76052;BME280;64751;48.708;9.710;2024-03-23T01:39:11;96832.47;;;6.13;88.09
76052;BME280;64751;48.708;9.710;2024-03-23T01:41:45;96830.13;;;6.11;88.02
76052;BME280;64751;48.708;9.710;2024-03-23T01:44:17;96828.03;;;6.03;87.32
76052;BME280;64751;48.708;9.710;2024-03-23T01:46:46;96838.78;;;6.07;87.77
76052;BME280;64751;48.708;9.710;2024-03-23T01:49:16;96822.50;;;6.10;88.69
76052;BME280;64751;48.708;9.710;2024-03-23T01:51:47;96809.41;;;6.10;87.82
76052;BME280;64751;48.708;9.710;2024-03-23T01:54:17;96803.41;;;6.04;86.40
76052;BME280;64751;48.708;9.710;2024-03-23T01:56:45;96802.34;;;6.10;86.94
76052;BME280;64751;48.708;9.710;2024-03-23T01:59:17;96807.84;;;6.09;87.59
76052;BME280;64751;48.708;9.710;2024-03-23T02:01:49;96807.34;;;6.07;87.66
76052;BME280;64751;48.708;9.710;2024-03-23T02:04:24;96792.13;;;6.09;87.47
76052;BME280;64751;48.708;9.710;2024-03-23T02:06:55;96790.03;;;6.06;87.31
76052;BME280;64751;48.708;9.710;2024-03-23T02:09:24;96795.53;;;6.09;88.16
76052;BME280;64751;48.708;9.710;2024-03-23T02:11:51;96794.50;;;6.05;87.44
76052;BME280;64751;48.708;9.710;2024-03-23T02:14:18;96786.63;;;6.00;87.79
76052;BME280;64751;48.708;9.710;2024-03-23T02:16:45;96789.25;;;6.05;88.12
76052;BME280;64751;48.708;9.710;2024-03-23T02:19:13;96781.91;;;6.07;87.77
76052;BME280;64751;48.708;9.710;2024-03-23T02:21:44;96775.09;;;6.06;88.47
76052;BME280;64751;48.708;9.710;2024-03-23T02:24:19;96773.25;;;6.12;89.41
76052;BME280;64751;48.708;9.710;2024-03-23T02:26:46;96771.41;;;6.12;90.29
76052;BME280;64751;48.708;9.710;2024-03-23T02:29:14;96756.97;;;6.10;90.40
76052;BME280;64751;48.708;9.710;2024-03-23T02:31:46;96758.03;;;6.14;90.68
76052;BME280;64751;48.708;9.710;2024-03-23T02:34:13;96745.47;;;6.11;91.14
76052;BME280;64751;48.708;9.710;2024-03-23T02:36:40;96749.13;;;6.15;91.41
76052;BME280;64751;48.708;9.710;2024-03-23T02:39:12;96743.34;;;6.23;90.61
76052;BME280;64751;48.708;9.710;2024-03-23T02:41:40;96742.53;;;6.22;90.72
76052;BME280;64751;48.708;9.710;2024-03-23T02:44:12;96738.59;;;6.25;90.95
76052;BME280;64751;48.708;9.710;2024-03-23T02:46:38;96741.75;;;6.22;89.93
76052;BME280;64751;48.708;9.710;2024-03-23T02:49:06;96735.97;;;6.25;89.94
76052;BME280;64751;48.708;9.710;2024-03-23T02:51:38;96741.22;;;6.25;89.97
76052;BME280;64751;48.708;9.710;2024-03-23T02:54:10;96733.88;;;6.27;89.87
76052;BME280;64751;48.708;9.710;2024-03-23T02:56:37;96730.75;;;6.25;89.89
76052;BME280;64751;48.708;9.710;2024-03-23T02:59:10;96737.00;;;6.29;90.00
76052;BME280;64751;48.708;9.710;2024-03-23T03:01:37;96738.31;;;6.31;90.07
76052;BME280;64751;48.708;9.710;2024-03-23T03:04:04;96735.94;;;6.35;89.99
76052;BME280;64751;48.708;9.710;2024-03-23T03:06:36;96735.69;;;6.36;90.25
76052;BME280;64751;48.708;9.710;2024-03-23T03:09:09;96739.84;;;6.37;90.90
76052;BME280;64751;48.708;9.710;2024-03-23T03:11:40;96735.41;;;6.38;90.89
76052;BME280;64751;48.708;9.710;2024-03-23T03:14:08;96729.09;;;6.39;90.42
76052;BME280;64751;48.708;9.710;2024-03-23T03:16:40;96731.47;;;6.40;90.84
76052;BME280;64751;48.708;9.710;2024-03-23T03:19:08;96733.00;;;6.41;90.73
76052;BME280;64751;48.708;9.710;2024-03-23T03:21:40;96730.16;;;6.38;90.66
76052;BME280;64751;48.708;9.710;2024-03-23T03:24:08;96708.91;;;6.34;90.71
76052;BME280;64751;48.708;9.710;2024-03-23T03:26:39;96721.53;;;6.32;90.74
76052;BME280;64751;48.708;9.710;2024-03-23T03:29:07;96714.94;;;6.35;90.81
76052;BME280;64751;48.708;9.710;2024-03-23T03:31:38;96710.22;;;6.37;91.51
76052;BME280;64751;48.708;9.710;2024-03-23T03:34:12;96711.78;;;6.43;91.25
76052;BME280;64751;48.708;9.710;2024-03-23T03:36:44;96709.94;;;6.43;91.53
76052;BME280;64751;48.708;9.710;2024-03-23T03:39:11;96703.41;;;6.41;91.43
76052;BME280;64751;48.708;9.710;2024-03-23T03:41:43;96704.97;;;6.42;91.16
76052;BME280;64751;48.708;9.710;2024-03-23T03:44:11;96713.34;;;6.44;91.63
76052;BME280;64751;48.708;9.710;2024-03-23T03:46:37;96709.41;;;6.46;91.99
76052;BME280;64751;48.708;9.710;2024-03-23T03:49:05;96702.31;;;6.52;92.21
76052;BME280;64751;48.708;9.710;2024-03-23T03:51:37;96705.94;;;6.56;93.63
76052;BME280;64751;48.708;9.710;2024-03-23T03:54:10;96707.47;;;6.62;93.25
76052;BME280;64751;48.708;9.710;2024-03-23T03:56:42;96706.44;;;6.63;93.12
76052;BME280;64751;48.708;9.710;2024-03-23T03:59:09;96710.38;;;6.61;92.71
76052;BME280;64751;48.708;9.710;2024-03-23T04:01:41;96691.53;;;6.53;91.92
76052;BME280;64751;48.708;9.710;2024-03-23T04:04:09;96697.56;;;6.54;92.28
76052;BME280;64751;48.708;9.710;2024-03-23T04:06:35;96700.75;;;6.46;91.65
76052;BME280;64751;48.708;9.710;2024-03-23T04:09:04;96691.84;;;6.42;91.88
76052;BME280;64751;48.708;9.710;2024-03-23T04:11:30;96689.00;;;6.38;92.23
76052;BME280;64751;48.708;9.710;2024-03-23T04:13:57;96682.69;;;6.34;92.78
76052;BME280;64751;48.708;9.710;2024-03-23T04:16:32;96664.63;;;6.33;92.09
76052;BME280;64751;48.708;9.710;2024-03-23T04:18:59;96657.84;;;6.32;92.29
76052;BME280;64751;48.708;9.710;2024-03-23T04:21:31;96653.66;;;6.26;91.57
76052;BME280;64751;48.708;9.710;2024-03-23T04:24:05;96643.16;;;6.26;91.71
76052;BME280;64751;48.708;9.710;2024-03-23T04:26:40;96634.28;;;6.22;91.57
76052;BME280;64751;48.708;9.710;2024-03-23T04:29:13;96623.28;;;6.20;91.33
76052;BME280;64751;48.708;9.710;2024-03-23T04:31:40;96613.09;;;6.13;91.08
76052;BME280;64751;48.708;9.710;2024-03-23T04:34:13;96609.44;;;6.09;90.67
76052;BME280;64751;48.708;9.710;2024-03-23T04:36:39;96601.09;;;6.02;90.78
76052;BME280;64751;48.708;9.710;2024-03-23T04:39:08;96593.25;;;6.02;91.52
76052;BME280;64751;48.708;9.710;2024-03-23T04:41:41;96579.84;;;6.04;91.88
76052;BME280;64751;48.708;9.710;2024-03-23T04:44:08;96572.06;;;5.94;90.75
76052;BME280;64751;48.708;9.710;2024-03-23T04:46:36;96566.25;;;5.97;91.43
76052;BME280;64751;48.708;9.710;2024-03-23T04:49:08;96556.66;;;5.87;90.89
76052;BME280;64751;48.708;9.710;2024-03-23T04:51:41;96555.28;;;5.90;91.42
76052;BME280;64751;48.708;9.710;2024-03-23T04:54:13;96551.13;;;5.89;91.59
76052;BME280;64751;48.708;9.710;2024-03-23T04:56:41;96548.78;;;5.87;91.88
76052;BME280;64751;48.708;9.710;2024-03-23T04:59:08;96555.56;;;5.93;91.39
76052;BME280;64751;48.708;9.710;2024-03-23T05:01:36;96547.19;;;5.91;92.03
76052;BME280;64751;48.708;9.710;2024-03-23T05:04:13;96549.00;;;5.91;91.70
76052;BME280;64751;48.708;9.710;2024-03-23T05:06:41;96560.00;;;5.93;91.76
76052;BME280;64751;48.708;9.710;2024-03-23T05:09:14;96566.81;;;5.94;91.11
76052;BME280;64751;48.708;9.710;2024-03-23T05:11:41;96553.75;;;5.89;91.62
76052;BME280;64751;48.708;9.710;2024-03-23T05:14:13;96547.97;;;5.92;92.83
76052;BME280;64751;48.708;9.710;2024-03-23T05:16:45;96546.09;;;5.97;93.20
76052;BME280;64751;48.708;9.710;2024-03-23T05:19:17;96531.13;;;6.03;93.07
76052;BME280;64751;48.708;9.710;2024-03-23T05:21:44;96528.22;;;6.09;93.84
76052;BME280;64751;48.708;9.710;2024-03-23T05:24:12;96545.97;;;6.17;93.72
76052;BME280;64751;48.708;9.710;2024-03-23T05:26:40;96586.06;;;6.23;95.21
76052;BME280;64751;48.708;9.710;2024-03-23T05:29:12;96600.03;;;6.47;100.00
76052;BME280;64751;48.708;9.710;2024-03-23T05:31:51;96628.13;;;6.80;100.00
76052;BME280;64751;48.708;9.710;2024-03-23T05:34:18;96623.53;;;7.24;100.00
76052;BME280;64751;48.708;9.710;2024-03-23T05:36:50;96617.53;;;7.48;100.00
76052;BME280;64751;48.708;9.710;2024-03-23T05:39:22;96617.53;;;7.71;100.00
76052;BME280;64751;48.708;9.710;2024-03-23T05:41:56;96630.28;;;7.83;100.00
76052;BME280;64751;48.708;9.710;2024-03-23T05:44:28;96631.72;;;7.94;100.00
76052;BME280;64751;48.708;9.710;2024-03-23T05:46:55;96633.09;;;8.10;100.00
76052;BME280;64751;48.708;9.710;2024-03-23T05:49:22;96632.19;;;8.20;100.00
76052;BME280;64751;48.708;9.710;2024-03-23T05:51:56;96635.81;;;8.24;100.00
76052;BME280;64751;48.708;9.710;2024-03-23T05:54:22;96619.72;;;8.30;100.00
76052;BME280;64751;48.708;9.710;2024-03-23T05:56:50;96630.97;;;8.36;100.00
76052;BME280;64751;48.708;9.710;2024-03-23T05:59:21;96633.81;;;8.39;100.00
76052;BME280;64751;48.708;9.710;2024-03-23T06:01:54;96637.72;;;8.42;100.00
76052;BME280;64751;48.708;9.710;2024-03-23T06:04:20;96657.97;;;8.41;100.00
76052;BME280;64751;48.708;9.710;2024-03-23T06:06:53;96682.94;;;8.44;100.00
76052;BME280;64751;48.708;9.710;2024-03-23T06:09:20;96695.31;;;8.43;100.00
76052;BME280;64751;48.708;9.710;2024-03-23T06:11:52;96706.13;;;8.42;100.00
76052;BME280;64751;48.708;9.710;2024-03-23T06:14:19;96709.53;;;8.42;100.00
76052;BME280;64751;48.708;9.710;2024-03-23T06:16:48;96730.84;;;8.41;100.00
76052;BME280;64751;48.708;9.710;2024-03-23T06:19:15;96731.44;;;8.38;100.00
76052;BME280;64751;48.708;9.710;2024-03-23T06:21:43;96738.25;;;8.39;100.00
76052;BME280;64751;48.708;9.710;2024-03-23T06:24:15;96744.84;;;8.36;100.00
76052;BME280;64751;48.708;9.710;2024-03-23T06:26:42;96742.00;;;8.33;100.00
76052;BME280;64751;48.708;9.710;2024-03-23T06:29:14;96752.03;;;8.31;100.00
76052;BME280;64751;48.708;9.710;2024-03-23T06:31:42;96759.41;;;8.29;100.00
76052;BME280;64751;48.708;9.710;2024-03-23T06:34:15;96756.81;;;8.24;100.00
76052;BME280;64751;48.708;9.710;2024-03-23T06:36:42;96756.03;;;8.23;100.00
76052;BME280;64751;48.708;9.710;2024-03-23T06:39:15;96778.91;;;8.23;100.00
76052;BME280;64751;48.708;9.710;2024-03-23T06:41:52;96776.97;;;8.57;100.00
76052;BME280;64751;48.708;9.710;2024-03-23T06:44:23;96797.03;;;8.53;100.00
76052;BME280;64751;48.708;9.710;2024-03-23T06:46:56;96787.38;;;8.43;100.00
76052;BME280;64751;48.708;9.710;2024-03-23T06:49:29;96787.19;;;8.40;100.00
76052;BME280;64751;48.708;9.710;2024-03-23T06:52:02;96798.03;;;8.33;100.00
76052;BME280;64751;48.708;9.710;2024-03-23T06:54:28;96802.50;;;8.33;100.00
76052;BME280;64751;48.708;9.710;2024-03-23T06:57:01;96800.94;;;8.32;100.00
76052;BME280;64751;48.708;9.710;2024-03-23T06:59:32;96797.78;;;8.30;100.00
76052;BME280;64751;48.708;9.710;2024-03-23T07:02:05;96795.44;;;8.28;100.00
76052;BME280;64751;48.708;9.710;2024-03-23T07:04:38;96799.94;;;8.28;100.00
76052;BME280;64751;48.708;9.710;2024-03-23T07:07:06;96807.56;;;8.29;100.00
76052;BME280;64751;48.708;9.710;2024-03-23T07:09:33;96822.44;;;8.39;100.00
76052;BME280;64751;48.708;9.710;2024-03-23T07:12:00;96818.69;;;8.45;100.00
76052;BME280;64751;48.708;9.710;2024-03-23T07:14:27;96824.97;;;8.49;100.00
76052;BME280;64751;48.708;9.710;2024-03-23T07:16:59;96822.88;;;8.46;100.00
76052;BME280;64751;48.708;9.710;2024-03-23T07:19:30;96832.41;;;8.42;100.00
76052;BME280;64751;48.708;9.710;2024-03-23T07:21:59;96814.81;;;8.37;100.00
76052;BME280;64751;48.708;9.710;2024-03-23T07:24:26;96794.31;;;8.34;100.00
76052;BME280;64751;48.708;9.710;2024-03-23T07:26:58;96810.91;;;8.35;100.00
76052;BME280;64751;48.708;9.710;2024-03-23T07:29:29;96825.91;;;8.34;100.00
76052;BME280;64751;48.708;9.710;2024-03-23T07:32:02;96833.03;;;8.34;100.00
76052;BME280;64751;48.708;9.710;2024-03-23T07:34:31;96841.13;;;8.37;100.00
76052;BME280;64751;48.708;9.710;2024-03-23T07:37:00;96846.41;;;8.37;100.00
76052;BME280;64751;48.708;9.710;2024-03-23T07:39:31;96846.84;;;8.44;100.00
76052;BME280;64751;48.708;9.710;2024-03-23T07:42:05;96846.28;;;8.47;99.74
76052;BME280;64751;48.708;9.710;2024-03-23T07:44:32;96849.84;;;8.56;97.93
76052;BME280;64751;48.708;9.710;2024-03-23T07:47:00;96869.34;;;8.55;97.36
76052;BME280;64751;48.708;9.710;2024-03-23T07:49:27;96874.84;;;8.59;94.84
76052;BME280;64751;48.708;9.710;2024-03-23T07:52:01;96897.22;;;8.56;96.29
76052;BME280;64751;48.708;9.710;2024-03-23T07:54:32;96896.19;;;8.57;95.30
76052;BME280;64751;48.708;9.710;2024-03-23T07:57:05;96899.13;;;8.51;93.95
76052;BME280;64751;48.708;9.710;2024-03-23T07:59:37;96896.22;;;8.52;95.96
76052;BME280;64751;48.708;9.710;2024-03-23T08:02:09;96897.81;;;8.53;94.56
76052;BME280;64751;48.708;9.710;2024-03-23T08:04:42;96898.03;;;8.57;94.75
76052;BME280;64751;48.708;9.710;2024-03-23T08:07:15;96923.50;;;8.61;95.09
76052;BME280;64751;48.708;9.710;2024-03-23T08:09:42;96918.34;;;8.51;92.97
76052;BME280;64751;48.708;9.710;2024-03-23T08:12:09;96915.94;;;8.55;92.14
76052;BME280;64751;48.708;9.710;2024-03-23T08:14:35;96910.97;;;8.53;93.01
76052;BME280;64751;48.708;9.710;2024-03-23T08:17:08;96915.16;;;8.54;92.35
76052;BME280;64751;48.708;9.710;2024-03-23T08:19:40;96939.94;;;8.48;94.24
76052;BME280;64751;48.708;9.710;2024-03-23T08:22:12;96938.81;;;8.54;94.43
76052;BME280;64751;48.708;9.710;2024-03-23T08:24:40;96941.75;;;8.53;94.06
76052;BME280;64751;48.708;9.710;2024-03-23T08:27:07;96952.19;;;8.63;95.71
76052;BME280;64751;48.708;9.710;2024-03-23T08:29:33;96940.81;;;8.67;93.44
76052;BME280;64751;48.708;9.710;2024-03-23T08:32:06;96950.19;;;8.79;93.16
76052;BME280;64751;48.708;9.710;2024-03-23T08:34:33;96964.31;;;8.88;90.48
76052;BME280;64751;48.708;9.710;2024-03-23T08:37:00;96980.22;;;8.77;90.33
76052;BME280;64751;48.708;9.710;2024-03-23T08:39:27;96991.56;;;8.73;92.26
76052;BME280;64751;48.708;9.710;2024-03-23T08:42:01;97013.41;;;8.73;92.14
76052;BME280;64751;48.708;9.710;2024-03-23T08:44:32;97017.66;;;8.69;93.27
76052;BME280;64751;48.708;9.710;2024-03-23T08:47:00;97023.50;;;8.61;92.38
76052;BME280;64751;48.708;9.710;2024-03-23T08:49:32;97037.31;;;8.48;91.92
76052;BME280;64751;48.708;9.710;2024-03-23T08:51:59;97032.31;;;8.47;93.07
76052;BME280;64751;48.708;9.710;2024-03-23T08:54:26;97033.78;;;8.63;91.92
76052;BME280;64751;48.708;9.710;2024-03-23T08:57:01;97045.59;;;8.65;92.09
76052;BME280;64751;48.708;9.710;2024-03-23T08:59:33;97076.19;;;8.56;92.41
76052;BME280;64751;48.708;9.710;2024-03-23T09:02:05;97092.91;;;8.37;94.85
76052;BME280;64751;48.708;9.710;2024-03-23T09:04:37;97101.59;;;8.32;94.15
76052;BME280;64751;48.708;9.710;2024-03-23T09:07:09;97096.72;;;8.54;95.78
76052;BME280;64751;48.708;9.710;2024-03-23T09:09:41;97113.69;;;8.38;95.77
76052;BME280;64751;48.708;9.710;2024-03-23T09:12:14;97113.72;;;8.33;97.15
76052;BME280;64751;48.708;9.710;2024-03-23T09:14:41;97116.63;;;8.22;96.83
76052;BME280;64751;48.708;9.710;2024-03-23T09:17:13;97116.44;;;8.03;96.22
76052;BME280;64751;48.708;9.710;2024-03-23T09:19:45;97127.25;;;8.01;95.35
76052;BME280;64751;48.708;9.710;2024-03-23T09:22:17;97115.94;;;8.01;96.63
76052;BME280;64751;48.708;9.710;2024-03-23T09:24:48;97129.09;;;7.96;95.29
76052;BME280;64751;48.708;9.710;2024-03-23T09:27:17;97133.09;;;7.88;94.51
76052;BME280;64751;48.708;9.710;2024-03-23T09:29:44;97124.63;;;8.01;95.24
76052;BME280;64751;48.708;9.710;2024-03-23T09:32:16;97133.34;;;7.92;92.36
76052;BME280;64751;48.708;9.710;2024-03-23T09:34:43;97137.00;;;7.96;94.37
76052;BME280;64751;48.708;9.710;2024-03-23T09:37:15;97135.97;;;7.92;91.72
76052;BME280;64751;48.708;9.710;2024-03-23T09:39:46;97134.66;;;7.89;93.06
76052;BME280;64751;48.708;9.710;2024-03-23T09:42:20;97146.53;;;7.82;92.84
76052;BME280;64751;48.708;9.710;2024-03-23T09:44:52;97145.22;;;7.79;92.27
76052;BME280;64751;48.708;9.710;2024-03-23T09:47:20;97156.53;;;7.70;91.84
76052;BME280;64751;48.708;9.710;2024-03-23T09:49:47;97153.63;;;7.71;92.25
76052;BME280;64751;48.708;9.710;2024-03-23T09:52:16;97154.13;;;7.78;94.08
76052;BME280;64751;48.708;9.710;2024-03-23T09:54:47;97141.50;;;7.80;93.47
76052;BME280;64751;48.708;9.710;2024-03-23T09:57:21;97128.13;;;7.82;95.00
76052;BME280;64751;48.708;9.710;2024-03-23T09:59:53;97132.31;;;7.88;93.93
76052;BME280;64751;48.708;9.710;2024-03-23T10:02:26;97134.13;;;7.92;92.84
76052;BME280;64751;48.708;9.710;2024-03-23T10:04:54;97131.44;;;8.07;90.97
76052;BME280;64751;48.708;9.710;2024-03-23T10:07:26;97126.47;;;8.01;89.62
76052;BME280;64751;48.708;9.710;2024-03-23T10:09:54;97123.81;;;8.11;89.74
76052;BME280;64751;48.708;9.710;2024-03-23T10:12:24;97120.09;;;8.12;91.04
76052;BME280;64751;48.708;9.710;2024-03-23T10:14:55;97120.06;;;8.17;90.38
76052;BME280;64751;48.708;9.710;2024-03-23T10:17:23;97110.84;;;8.25;91.63
76052;BME280;64751;48.708;9.710;2024-03-23T10:19:56;97108.44;;;8.33;91.72
76052;BME280;64751;48.708;9.710;2024-03-23T10:22:23;97102.50;;;8.56;92.63
76052;BME280;64751;48.708;9.710;2024-03-23T10:25:07;97089.41;;;8.85;89.33
76052;BME280;64751;48.708;9.710;2024-03-23T10:27:41;97100.47;;;9.16;86.82
76052;BME280;64751;48.708;9.710;2024-03-23T10:30:15;97107.81;;;9.19;82.46
76052;BME280;64751;48.708;9.710;2024-03-23T10:32:48;97107.75;;;9.24;81.93
76052;BME280;64751;48.708;9.710;2024-03-23T10:35:21;97103.88;;;9.45;81.68
76052;BME280;64751;48.708;9.710;2024-03-23T10:37:54;97107.97;;;9.56;81.22
76052;BME280;64751;48.708;9.710;2024-03-23T10:40:29;97113.75;;;9.58;79.24
76052;BME280;64751;48.708;9.710;2024-03-23T10:43:04;97110.47;;;9.42;77.75
76052;BME280;64751;48.708;9.710;2024-03-23T10:45:35;97111.03;;;9.39;77.44
76052;BME280;64751;48.708;9.710;2024-03-23T10:48:08;97103.91;;;9.40;76.29
76052;BME280;64751;48.708;9.710;2024-03-23T10:50:39;97113.03;;;9.53;75.98
76052;BME280;64751;48.708;9.710;2024-03-23T10:53:07;97109.81;;;9.56;76.63
76052;BME280;64751;48.708;9.710;2024-03-23T10:55:34;97105.38;;;9.51;75.77
76052;BME280;64751;48.708;9.710;2024-03-23T10:58:08;97101.94;;;9.50;75.52
76052;BME280;64751;48.708;9.710;2024-03-23T11:00:40;97101.41;;;9.54;76.51
76052;BME280;64751;48.708;9.710;2024-03-23T11:03:32;97113.41;;;9.65;72.06
76052;BME280;64751;48.708;9.710;2024-03-23T11:05:59;97100.72;;;9.43;67.70
76052;BME280;64751;48.708;9.710;2024-03-23T11:08:34;97100.81;;;9.33;67.10
76052;BME280;64751;48.708;9.710;2024-03-23T11:11:14;97107.28;;;9.17;68.77
76052;BME280;64751;48.708;9.710;2024-03-23T11:13:43;97096.88;;;9.02;67.60
76052;BME280;64751;48.708;9.710;2024-03-23T11:16:16;97106.88;;;9.05;67.50
76052;BME280;64751;48.708;9.710;2024-03-23T11:18:44;97108.53;;;9.24;67.58
76052;BME280;64751;48.708;9.710;2024-03-23T11:21:51;97110.59;;;9.56;70.53
76052;BME280;64751;48.708;9.710;2024-03-23T11:24:19;97113.94;;;10.33;75.88
76052;BME280;64751;48.708;9.710;2024-03-23T11:26:47;97115.56;;;10.66;68.62
76052;BME280;64751;48.708;9.710;2024-03-23T11:29:17;97135.09;;;10.65;65.79
76052;BME280;64751;48.708;9.710;2024-03-23T11:31:50;97158.38;;;10.44;67.29
76052;BME280;64751;48.708;9.710;2024-03-23T11:34:23;97170.66;;;9.88;69.05
76052;BME280;64751;48.708;9.710;2024-03-23T11:36:49;97195.28;;;9.49;74.42
76052;BME280;64751;48.708;9.710;2024-03-23T11:39:18;97225.28;;;9.20;79.25
76052;BME280;64751;48.708;9.710;2024-03-23T11:41:51;97237.16;;;8.79;82.11
76052;BME280;64751;48.708;9.710;2024-03-23T11:44:22;97241.31;;;8.85;84.23
76052;BME280;64751;48.708;9.710;2024-03-23T11:46:49;97237.78;;;9.04;85.20
76052;BME280;64751;48.708;9.710;2024-03-23T11:49:27;97253.63;;;9.38;84.29
76052;BME280;64751;48.708;9.710;2024-03-23T11:52:00;97248.63;;;9.36;83.70
76052;BME280;64751;48.708;9.710;2024-03-23T11:54:33;97246.72;;;9.42;82.07
76052;BME280;64751;48.708;9.710;2024-03-23T11:57:00;97210.16;;;9.35;83.20
76052;BME280;64751;48.708;9.710;2024-03-23T11:59:38;97231.09;;;9.50;81.64
76052;BME280;64751;48.708;9.710;2024-03-23T12:02:08;97216.50;;;9.63;82.41
76052;BME280;64751;48.708;9.710;2024-03-23T12:04:45;97227.88;;;9.87;82.02
76052;BME280;64751;48.708;9.710;2024-03-23T12:07:13;97224.81;;;10.04;81.16
76052;BME280;64751;48.708;9.710;2024-03-23T12:09:46;97218.56;;;10.24;80.66
76052;BME280;64751;48.708;9.710;2024-03-23T12:12:14;97218.41;;;10.34;79.36
76052;BME280;64751;48.708;9.710;2024-03-23T12:14:45;97216.66;;;10.48;79.54
76052;BME280;64751;48.708;9.710;2024-03-23T12:17:16;97220.25;;;10.57;78.41
76052;BME280;64751;48.708;9.710;2024-03-23T12:19:49;97220.34;;;10.28;76.86
76052;BME280;64751;48.708;9.710;2024-03-23T12:22:20;97230.84;;;10.04;78.80
76052;BME280;64751;48.708;9.710;2024-03-23T12:24:48;97226.63;;;9.80;79.83
76052;BME280;64751;48.708;9.710;2024-03-23T12:27:20;97217.97;;;9.74;80.54
76052;BME280;64751;48.708;9.710;2024-03-23T12:29:54;97222.88;;;9.86;82.14
76052;BME280;64751;48.708;9.710;2024-03-23T12:32:20;97221.31;;;9.85;80.79
76052;BME280;64751;48.708;9.710;2024-03-23T12:34:52;97226.13;;;9.78;82.92
76052;BME280;64751;48.708;9.710;2024-03-23T12:37:24;97222.72;;;9.77;82.63
76052;BME280;64751;48.708;9.710;2024-03-23T12:39:56;97213.38;;;9.85;79.94
76052;BME280;64751;48.708;9.710;2024-03-23T12:42:28;97218.44;;;9.81;79.45
76052;BME280;64751;48.708;9.710;2024-03-23T12:45:02;97215.16;;;9.94;80.28
76052;BME280;64751;48.708;9.710;2024-03-23T12:47:30;97214.91;;;10.19;79.79
76052;BME280;64751;48.708;9.710;2024-03-23T12:50:03;97207.66;;;10.30;78.09
76052;BME280;64751;48.708;9.710;2024-03-23T12:52:34;97208.25;;;10.46;78.49
76052;BME280;64751;48.708;9.710;2024-03-23T12:55:02;97199.56;;;10.64;78.46
76052;BME280;64751;48.708;9.710;2024-03-23T12:57:34;97198.28;;;10.80;77.21
76052;BME280;64751;48.708;9.710;2024-03-23T13:00:09;97201.88;;;10.89;75.60
76052;BME280;64751;48.708;9.710;2024-03-23T13:02:37;97199.59;;;10.82;73.28
76052;BME280;64751;48.708;9.710;2024-03-23T13:05:10;97187.94;;;10.83;72.04
76052;BME280;64751;48.708;9.710;2024-03-23T13:07:42;97188.84;;;10.74;71.96
76052;BME280;64751;48.708;9.710;2024-03-23T13:10:10;97181.72;;;10.74;73.34
76052;BME280;64751;48.708;9.710;2024-03-23T13:12:36;97168.66;;;10.46;66.98
76052;BME280;64751;48.708;9.710;2024-03-23T13:15:04;97167.75;;;10.13;71.50
76052;BME280;64751;48.708;9.710;2024-03-23T13:17:33;97167.84;;;10.27;72.18
76052;BME280;64751;48.708;9.710;2024-03-23T13:20:01;97161.72;;;10.50;72.79
76052;BME280;64751;48.708;9.710;2024-03-23T13:22:28;97152.31;;;10.44;68.66
76052;BME280;64751;48.708;9.710;2024-03-23T13:25:01;97136.19;;;10.27;69.03
76052;BME280;64751;48.708;9.710;2024-03-23T13:27:32;97142.25;;;10.03;71.11
76052;BME280;64751;48.708;9.710;2024-03-23T13:30:06;97139.66;;;9.75;69.83
76052;BME280;64751;48.708;9.710;2024-03-23T13:32:34;97133.69;;;9.64;70.71
76052;BME280;64751;48.708;9.710;2024-03-23T13:35:03;97134.97;;;9.43;69.77
76052;BME280;64751;48.708;9.710;2024-03-23T13:37:34;97139.38;;;9.24;71.53
76052;BME280;64751;48.708;9.710;2024-03-23T13:40:08;97139.75;;;9.12;72.18
76052;BME280;64751;48.708;9.710;2024-03-23T13:42:35;97128.06;;;9.23;73.15
76052;BME280;64751;48.708;9.710;2024-03-23T13:45:08;97126.59;;;9.12;72.20
76052;BME280;64751;48.708;9.710;2024-03-23T13:47:44;97126.97;;;8.96;72.97
76052;BME280;64751;48.708;9.710;2024-03-23T13:50:11;97135.00;;;8.81;74.09
76052;BME280;64751;48.708;9.710;2024-03-23T13:52:38;97132.28;;;9.19;76.72
76052;BME280;64751;48.708;9.710;2024-03-23T13:55:11;97115.56;;;9.58;75.18
76052;BME280;64751;48.708;9.710;2024-03-23T13:57:41;97116.19;;;9.73;74.98
76052;BME280;64751;48.708;9.710;2024-03-23T14:00:10;97101.22;;;9.69;73.39
76052;BME280;64751;48.708;9.710;2024-03-23T14:02:45;97099.19;;;9.84;73.42
76052;BME280;64751;48.708;9.710;2024-03-23T14:05:18;97079.72;;;9.80;71.74
76052;BME280;64751;48.708;9.710;2024-03-23T14:07:44;97083.59;;;9.64;74.36
76052;BME280;64751;48.708;9.710;2024-03-23T14:10:17;97077.06;;;9.38;73.03
76052;BME280;64751;48.708;9.710;2024-03-23T14:12:48;97075.63;;;9.22;68.79
76052;BME280;64751;48.708;9.710;2024-03-23T14:15:21;97073.31;;;9.15;71.48